createdAt,value
2022-12-27T00:03:17.791Z,0.60
2022-12-27T00:07:22.275Z,0.50
2022-12-27T00:11:27.366Z,0.80
2022-12-27T00:15:30.428Z,0.70
2022-12-27T00:19:33.413Z,0.87
2022-12-27T00:23:39.122Z,0.90
2022-12-27T00:27:41.881Z,0.70
2022-12-27T00:31:44.710Z,0.60
2022-12-27T00:35:47.469Z,0.70
2022-12-27T00:39:51.592Z,0.90
2022-12-27T00:43:55.002Z,0.60
2022-12-27T00:47:57.765Z,0.50
2022-12-27T00:52:00.748Z,0.67
2022-12-27T00:56:09.064Z,0.63
2022-12-27T01:00:12.926Z,0.60
2022-12-27T01:04:16.017Z,0.50
2022-12-27T01:08:18.963Z,0.63
2022-12-27T01:12:23.543Z,0.60
2022-12-27T01:16:27.445Z,0.70
2022-12-27T01:20:30.338Z,0.63
2022-12-27T01:24:37.492Z,0.70
2022-12-27T01:28:42.536Z,0.77
2022-12-27T01:32:45.256Z,0.63
2022-12-27T01:36:47.978Z,0.60
2022-12-27T01:40:50.715Z,0.60
2022-12-27T01:44:59.703Z,0.67
2022-12-27T01:49:05.115Z,0.90
2022-12-27T01:53:10.790Z,0.80
2022-12-27T01:57:13.570Z,0.67
2022-12-27T02:01:20.526Z,0.50
2022-12-27T02:05:25.280Z,0.60
2022-12-27T02:09:32.797Z,0.60
2022-12-27T02:13:39.997Z,0.70
2022-12-27T02:17:45.246Z,1.10
2022-12-27T02:22:05.961Z,0.90
2022-12-27T02:26:38.710Z,0.93
2022-12-27T02:30:52.645Z,0.90
2022-12-27T02:35:02.395Z,0.80
2022-12-27T02:39:05.813Z,0.80
2022-12-27T02:43:26.966Z,0.80
2022-12-27T02:47:51.347Z,0.80
2022-12-27T02:52:21.308Z,0.63
2022-12-27T02:56:47.917Z,0.80
2022-12-27T03:01:15.036Z,0.80
2022-12-27T03:05:24.373Z,0.70
2022-12-27T03:09:53.353Z,0.57
2022-12-27T03:14:18.925Z,0.70
2022-12-27T03:18:24.151Z,0.80
2022-12-27T03:22:48.166Z,0.70
2022-12-27T03:26:51.972Z,0.70
2022-12-27T03:31:15.872Z,0.93
2022-12-27T03:35:21.237Z,0.50
2022-12-27T03:39:28.551Z,0.70
2022-12-27T03:43:31.921Z,0.80
2022-12-27T03:47:38.826Z,0.90
2022-12-27T03:51:43.802Z,0.70
2022-12-27T03:55:48.323Z,0.70
2022-12-27T03:59:51.644Z,0.80
2022-12-27T04:03:54.445Z,0.90
2022-12-27T04:08:14.475Z,0.80
2022-12-27T04:12:36.208Z,0.80
2022-12-27T04:16:56.659Z,0.77
2022-12-27T04:21:16.901Z,0.83
2022-12-27T04:25:37.271Z,0.60
2022-12-27T04:29:58.878Z,0.77
2022-12-27T04:34:19.165Z,0.70
2022-12-27T04:38:22.115Z,0.77
2022-12-27T04:42:42.287Z,0.80
2022-12-27T04:47:03.921Z,0.73
2022-12-27T04:51:20.838Z,0.70
2022-12-27T04:55:25.020Z,0.70
2022-12-27T04:59:45.099Z,0.80
2022-12-27T05:03:50.719Z,0.70
2022-12-27T05:08:11.462Z,0.80
2022-12-27T05:12:31.685Z,0.87
2022-12-27T05:16:36.955Z,0.60
2022-12-27T05:20:41.060Z,1.00
2022-12-27T05:25:01.218Z,0.70
2022-12-27T05:29:04.291Z,0.70
2022-12-27T05:33:07.842Z,0.80
2022-12-27T05:37:12.179Z,0.73
2022-12-27T05:41:14.920Z,0.70
2022-12-27T05:45:17.840Z,1.00
2022-12-27T05:49:20.567Z,0.90
2022-12-27T05:53:24.899Z,1.17
2022-12-27T05:57:27.555Z,1.13
2022-12-27T06:01:30.401Z,1.10
2022-12-27T06:05:33.176Z,0.80
2022-12-27T06:09:37.239Z,0.80
2022-12-27T06:13:42.448Z,1.30
2022-12-27T06:17:45.149Z,1.60
2022-12-27T06:21:47.829Z,1.10
2022-12-27T06:25:51.921Z,1.10
2022-12-27T06:29:54.898Z,1.17
2022-12-27T06:33:57.950Z,1.17
2022-12-27T06:38:00.897Z,1.20
2022-12-27T06:42:05.553Z,1.20
2022-12-27T06:46:16.725Z,0.93
2022-12-27T06:50:20.056Z,1.00
2022-12-27T06:54:22.775Z,1.30
2022-12-27T06:58:27.091Z,1.20
2022-12-27T07:02:29.881Z,1.30
2022-12-27T07:06:33.401Z,1.00
2022-12-27T07:10:37.389Z,1.10
2022-12-27T07:14:42.062Z,1.40
2022-12-27T07:18:45.539Z,1.40
2022-12-27T07:22:48.274Z,1.10
2022-12-27T07:26:51.686Z,1.40
2022-12-27T07:30:57.254Z,1.40
2022-12-27T07:34:59.996Z,1.37
2022-12-27T07:39:02.765Z,1.13
2022-12-27T07:43:05.696Z,1.10
2022-12-27T07:47:09.723Z,1.70
2022-12-27T07:51:13.061Z,1.10
2022-12-27T07:55:15.864Z,1.53
2022-12-27T07:59:18.552Z,3.57
2022-12-27T08:03:22.748Z,3.97
2022-12-27T08:07:26.377Z,2.40
2022-12-27T08:11:30.171Z,1.57
2022-12-27T08:15:33.369Z,1.80
2022-12-27T08:19:37.656Z,1.53
2022-12-27T08:23:40.449Z,1.83
2022-12-27T08:27:43.167Z,1.60
2022-12-27T08:31:45.897Z,1.40
2022-12-27T08:35:53.148Z,1.53
2022-12-27T08:40:02.524Z,1.40
2022-12-27T08:44:05.880Z,1.43
2022-12-27T08:48:08.955Z,1.27
2022-12-27T08:52:13.283Z,1.70
2022-12-27T08:56:16.254Z,1.60
2022-12-27T09:00:19.074Z,1.67
2022-12-27T09:04:22.161Z,1.37
2022-12-27T09:08:26.810Z,1.40
2022-12-27T09:12:29.472Z,1.60
2022-12-27T09:16:34.007Z,1.40
2022-12-27T09:20:36.718Z,1.40
2022-12-27T09:24:41.119Z,1.20
2022-12-27T09:28:44.161Z,1.50
2022-12-27T09:32:46.845Z,1.30
2022-12-27T09:36:49.604Z,1.37
2022-12-27T09:40:55.089Z,1.67
2022-12-27T09:45:01.944Z,1.23
2022-12-27T09:49:05.066Z,1.47
2022-12-27T09:53:13.945Z,1.50
2022-12-27T09:57:20.741Z,1.27
2022-12-27T10:01:33.879Z,1.20
2022-12-27T10:05:38.069Z,1.20
2022-12-27T10:09:52.983Z,1.50
2022-12-27T10:14:07.681Z,1.20
2022-12-27T10:18:18.843Z,1.03
2022-12-27T10:22:25.901Z,1.10
2022-12-27T10:26:28.756Z,1.40
2022-12-27T10:30:32.807Z,1.20
2022-12-27T10:34:36.097Z,1.27
2022-12-27T10:38:39.175Z,1.50
2022-12-27T10:42:44.717Z,1.30
2022-12-27T10:46:53.078Z,1.50
2022-12-27T10:50:57.243Z,1.30
2022-12-27T10:54:59.983Z,1.30
2022-12-27T10:59:13.088Z,1.37
2022-12-27T11:03:20.167Z,1.40
2022-12-27T11:07:27.009Z,1.30
2022-12-27T11:11:29.817Z,1.20
2022-12-27T11:15:34.079Z,1.60
2022-12-27T11:19:38.921Z,1.20
2022-12-27T11:23:46.301Z,1.60
2022-12-27T11:27:51.029Z,1.20
2022-12-27T11:31:54.185Z,1.50
2022-12-27T11:35:59.165Z,1.30
2022-12-27T11:40:21.069Z,1.30
2022-12-27T11:44:25.578Z,1.37
2022-12-27T11:48:31.076Z,1.20
2022-12-27T11:52:49.182Z,1.20
2022-12-27T11:56:54.104Z,1.40
2022-12-27T12:01:05.357Z,1.47
2022-12-27T12:05:48.659Z,1.13
2022-12-27T12:10:06.440Z,1.27
2022-12-27T12:14:33.934Z,1.23
2022-12-27T12:18:58.678Z,1.30
2022-12-27T12:23:09.503Z,1.47
2022-12-27T12:27:38.450Z,1.50
2022-12-27T12:31:55.290Z,1.20
2022-12-27T12:36:23.766Z,1.37
2022-12-27T12:40:38.074Z,1.30
2022-12-27T12:45:22.850Z,1.47
2022-12-27T12:49:59.834Z,1.20
2022-12-27T12:54:11.908Z,1.07
2022-12-27T12:58:29.158Z,1.47
2022-12-27T13:03:10.297Z,1.23
2022-12-27T13:07:25.758Z,6.20
2022-12-27T13:11:41.229Z,3.23
2022-12-27T13:15:55.491Z,8.10
2022-12-27T13:20:19.689Z,4.47
2022-12-27T13:24:32.201Z,2.60
2022-12-27T13:28:42.811Z,2.87
2022-12-27T13:33:22.586Z,3.10
2022-12-27T13:37:34.473Z,3.90
2022-12-27T13:41:47.942Z,2.17
2022-12-27T13:46:00.533Z,1.63
2022-12-27T13:50:18.158Z,2.00
2022-12-27T13:54:53.366Z,2.77
2022-12-27T13:59:28.092Z,1.70
2022-12-27T14:03:54.388Z,1.50
2022-12-27T14:08:01.450Z,1.13
2022-12-27T14:12:13.344Z,1.50
2022-12-27T14:16:32.147Z,2.00
2022-12-27T14:20:52.132Z,1.47
2022-12-27T14:25:16.056Z,1.40
2022-12-27T14:29:42.003Z,1.23
2022-12-27T14:34:19.532Z,1.47
2022-12-27T14:38:47.165Z,1.30
2022-12-27T14:43:36.409Z,1.60
2022-12-27T14:48:20.527Z,1.67
2022-12-27T15:14:07.618Z,1.53
2022-12-27T15:18:23.663Z,1.37
2022-12-27T15:22:31.158Z,1.57
2022-12-27T15:26:38.555Z,1.60
2022-12-27T15:30:47.827Z,1.50
2022-12-27T15:35:00.133Z,1.50
2022-12-27T15:39:03.514Z,2.33
2022-12-27T15:43:14.610Z,3.80
2022-12-27T15:47:38.515Z,2.60
2022-12-27T15:51:47.538Z,2.20
2022-12-27T15:56:23.279Z,2.07
2022-12-27T16:00:33.880Z,1.63
2022-12-27T16:04:48.689Z,1.80
2022-12-27T16:09:32.669Z,1.40
2022-12-27T16:13:49.732Z,2.07
2022-12-27T16:17:55.553Z,2.30
2022-12-27T16:22:18.468Z,2.90
2022-12-27T16:26:23.152Z,1.97
2022-12-27T16:30:43.291Z,1.90
2022-12-27T16:34:48.051Z,2.17
2022-12-27T16:39:19.206Z,1.83
2022-12-27T16:43:33.766Z,2.23
2022-12-27T16:47:44.986Z,2.13
2022-12-27T16:51:59.242Z,2.40
2022-12-27T16:56:16.336Z,1.93
2022-12-27T17:00:38.636Z,2.10
2022-12-27T17:05:00.979Z,2.20
2022-12-27T17:09:38.822Z,2.30
2022-12-27T17:13:46.302Z,5.53
2022-12-27T17:17:52.352Z,3.43
2022-12-27T17:21:58.283Z,3.60
2022-12-27T17:26:12.813Z,4.10
2022-12-27T17:30:24.204Z,4.63
2022-12-27T17:34:35.521Z,4.60
2022-12-27T17:38:48.103Z,6.07
2022-12-27T17:43:17.116Z,5.97
2022-12-27T17:47:43.515Z,6.37
2022-12-27T17:52:01.119Z,7.53
2022-12-27T17:56:31.320Z,9.90
2022-12-27T18:00:36.333Z,11.23
2022-12-27T18:04:43.311Z,4.70
2022-12-27T18:08:48.802Z,5.00
2022-12-27T18:12:53.890Z,5.33
2022-12-27T18:16:56.764Z,7.10
2022-12-27T18:21:02.349Z,6.07
2022-12-27T18:25:24.720Z,4.70
2022-12-27T18:29:27.777Z,5.33
2022-12-27T18:33:34.756Z,4.67
2022-12-27T18:37:40.588Z,6.53
2022-12-27T18:41:46.522Z,5.70
2022-12-27T18:45:49.320Z,11.43
2022-12-27T18:49:54.211Z,7.80
2022-12-27T18:53:58.520Z,8.30
2022-12-27T18:58:05.855Z,8.33
2022-12-27T19:02:33.702Z,7.00
2022-12-27T19:06:36.517Z,5.87
2022-12-27T19:10:48.337Z,4.93
2022-12-27T19:14:51.509Z,5.30
2022-12-27T19:18:56.397Z,5.30
2022-12-27T19:23:08.671Z,6.03
2022-12-27T19:27:24.938Z,5.77
2022-12-27T19:31:27.892Z,5.53
2022-12-27T19:35:30.694Z,5.20
2022-12-27T19:39:35.928Z,9.83
2022-12-27T19:43:41.682Z,6.07
2022-12-27T19:47:44.493Z,7.00
2022-12-27T19:51:47.705Z,6.10
2022-12-27T19:55:50.520Z,8.37
2022-12-27T19:59:54.719Z,8.83
2022-12-27T20:03:57.511Z,8.10
2022-12-27T20:08:00.614Z,9.13
2022-12-27T20:12:03.516Z,8.23
2022-12-27T20:16:08.950Z,7.40
2022-12-27T20:20:12.405Z,7.93
2022-12-27T20:24:15.472Z,7.80
2022-12-27T20:28:19.466Z,17.13
2022-12-27T20:32:23.776Z,17.50
2022-12-27T20:36:26.572Z,18.73
2022-12-27T20:40:29.363Z,19.40
2022-12-27T20:44:32.392Z,15.07
2022-12-27T20:48:38.280Z,14.40
2022-12-27T20:52:41.308Z,13.33
2022-12-27T20:56:44.066Z,11.43
2022-12-27T21:00:46.845Z,15.43
2022-12-27T21:04:51.219Z,10.40
2022-12-27T21:08:56.775Z,9.27
2022-12-27T21:13:00.654Z,9.97
2022-12-27T21:17:03.506Z,9.73
2022-12-27T21:21:09.234Z,10.30
2022-12-27T21:25:12.242Z,9.53
2022-12-27T21:29:16.293Z,11.77
2022-12-27T21:33:19.035Z,9.70
2022-12-27T21:37:23.191Z,9.93
2022-12-27T21:41:27.274Z,9.97
2022-12-27T21:45:30.249Z,10.43
2022-12-27T21:49:34.654Z,10.90
2022-12-27T21:53:39.131Z,12.77
2022-12-27T21:57:41.820Z,10.77
2022-12-27T22:01:50.369Z,11.20
2022-12-27T22:05:55.369Z,11.40
2022-12-27T22:09:59.702Z,12.33
2022-12-27T22:14:02.536Z,10.00
2022-12-27T22:18:05.594Z,10.10
2022-12-27T22:22:08.385Z,9.43
2022-12-27T22:26:14.050Z,8.73
2022-12-27T22:30:16.952Z,18.00
2022-12-27T22:34:19.750Z,13.87
2022-12-27T22:38:22.450Z,12.97
2022-12-27T22:42:26.571Z,9.50
2022-12-27T22:46:51.288Z,10.13
2022-12-27T22:50:53.803Z,9.17
2022-12-27T22:55:05.554Z,10.03
2022-12-27T22:59:12.256Z,8.77
2022-12-27T23:03:14.984Z,8.70
2022-12-27T23:07:20.033Z,8.67
2022-12-27T23:11:24.684Z,7.50
2022-12-27T23:15:29.110Z,7.17
2022-12-27T23:19:31.969Z,7.50
2022-12-27T23:23:35.551Z,7.43
2022-12-27T23:27:38.332Z,7.30
2022-12-27T23:31:55.607Z,7.27
2022-12-27T23:35:58.898Z,7.40
2022-12-27T23:40:01.730Z,7.07
2022-12-27T23:44:04.889Z,7.03
2022-12-27T23:48:09.109Z,7.40
2022-12-27T23:52:11.897Z,6.80
2022-12-27T23:56:17.065Z,7.10
